Time;durP1;ratioP1;P1;durP2;ratioP2;P2;SDS_P1;SDS_P2;PMS_P1;PMS_P2;Temp;Humidity;BMP_temperature;BMP_pressure;BME280_temperature;BME280_humidity;BME280_pressure;Samples;Min_cycle;Max_cycle;Signal;HPM_P1;HPM_P2
2022/09/08 00:01:23;;;;;;;;;;;;;;;20.16;65.16;97474.78;5010596;28;19929;-75
2022/09/08 00:03:51;;;;;;;;;;;;;;;20.15;65.43;97467.69;5004574;28;20378;-75
2022/09/08 00:06:19;;;;;;;;;;;;;;;20.13;65.76;97459.78;5008910;28;20391;-76
2022/09/08 00:08:47;;;;;;;;;;;;;;;20.11;66.73;97459.38;5007847;28;19987;-75
2022/09/08 00:11:16;;;;;;;;;;;;;;;20.06;67.61;97467.22;5006398;28;20345;-75
2022/09/08 00:13:47;;;;;;;;;;;;;;;20.04;68.05;97472.34;5009504;28;20015;-75
2022/09/08 00:16:18;;;;;;;;;;;;;;;20.04;68.36;97477.84;5012274;28;19948;-75
2022/09/08 00:19:13;;;;;;;;;;;;;;;20.00;68.75;97488.06;5006516;28;19926;-75
2022/09/08 00:21:42;;;;;;;;;;;;;;;19.98;68.72;97495.94;5001641;28;19929;-75
2022/09/08 00:24:10;;;;;;;;;;;;;;;19.95;68.78;97482.91;5006570;28;20365;-75
2022/09/08 00:26:41;;;;;;;;;;;;;;;19.91;68.86;97487.59;5011825;28;19929;-75
2022/09/08 00:32:00;;;;;;;;;;;;;;;19.91;68.66;97496.66;5007310;28;19953;-75
2022/09/08 00:34:29;;;;;;;;;;;;;;;19.87;69.06;97510.44;5003840;28;20031;-75
2022/09/08 00:36:58;;;;;;;;;;;;;;;19.81;69.69;97505.63;5006333;28;19934;-75
2022/09/08 00:39:27;;;;;;;;;;;;;;;19.72;70.49;97503.22;5008965;28;19940;-75
2022/09/08 00:41:55;;;;;;;;;;;;;;;19.69;71.02;97512.25;5003690;28;20325;-77
2022/09/08 00:44:48;;;;;;;;;;;;;;;19.57;72.47;97507.00;5004569;28;19932;-76
2022/09/08 00:47:37;;;;;;;;;;;;;;;19.52;74.03;97507.34;5002114;28;20009;-77
2022/09/08 00:50:26;;;;;;;;;;;;;;;19.41;74.85;97501.72;4995930;28;19926;-78
2022/09/08 00:53:16;;;;;;;;;;;;;;;19.35;75.88;97504.03;5011748;28;19933;-76
2022/09/08 00:56:08;;;;;;;;;;;;;;;19.24;76.49;97514.16;5003807;28;19934;-76
2022/09/08 00:58:59;;;;;;;;;;;;;;;19.14;77.62;97512.09;5003515;28;19933;-77
2022/09/08 01:01:47;;;;;;;;;;;;;;;19.00;77.93;97517.44;5002370;28;20045;-76
2022/09/08 01:04:36;;;;;;;;;;;;;;;18.96;78.67;97511.06;5005193;28;19971;-76
2022/09/08 01:14:08;;;;;;;;;;;;;;;18.67;78.86;97499.72;5002913;28;20596;-76
2022/09/08 01:16:56;;;;;;;;;;;;;;;18.59;79.60;97500.81;4995656;28;20038;-76
2022/09/08 01:19:46;;;;;;;;;;;;;;;18.52;79.49;97507.00;5006936;28;20012;-76
2022/09/08 01:22:52;;;;;;;;;;;;;;;18.47;78.74;97499.06;5002548;28;20010;-76
2022/09/08 01:26:06;;;;;;;;;;;;;;;18.43;78.84;97497.44;5005453;28;20552;-76
2022/09/08 01:28:59;;;;;;;;;;;;;;;18.42;78.41;97491.13;5006585;28;19947;-76
2022/09/08 01:31:48;;;;;;;;;;;;;;;18.38;78.38;97487.56;5008235;28;20015;-76
2022/09/08 01:34:39;;;;;;;;;;;;;;;18.25;78.04;97477.94;5006204;28;19948;-76
2022/09/08 01:37:28;;;;;;;;;;;;;;;18.29;78.89;97465.84;5002751;28;20560;-76
2022/09/08 01:40:16;;;;;;;;;;;;;;;18.18;79.10;97451.16;5004280;28;19925;-76
2022/09/08 01:43:04;;;;;;;;;;;;;;;18.15;78.39;97453.84;5011439;28;20008;-76
2022/09/08 01:45:57;;;;;;;;;;;;;;;18.08;78.46;97454.53;5008099;28;19933;-77
2022/09/08 01:49:10;;;;;;;;;;;;;;;18.07;78.20;97444.72;5007133;28;19929;-77
2022/09/08 01:51:59;;;;;;;;;;;;;;;18.00;77.89;97439.94;5007593;28;19933;-76
2022/09/08 01:54:47;;;;;;;;;;;;;;;18.03;78.34;97435.63;5004445;28;19930;-76
2022/09/08 01:57:35;;;;;;;;;;;;;;;17.97;77.65;97437.13;5008915;28;20023;-76
2022/09/08 02:00:24;;;;;;;;;;;;;;;18.01;78.17;97436.00;5010838;28;19929;-76
2022/09/08 02:03:13;;;;;;;;;;;;;;;17.96;78.67;97432.78;5018259;28;20861;-76
2022/09/08 02:06:27;;;;;;;;;;;;;;;17.96;77.83;97424.53;5006503;28;20059;-77
2022/09/08 02:09:15;;;;;;;;;;;;;;;17.93;78.74;97422.53;5011844;28;19929;-77
2022/09/08 02:12:04;;;;;;;;;;;;;;;17.92;78.95;97405.25;5007759;28;20010;-76
2022/09/08 02:14:52;;;;;;;;;;;;;;;17.90;79.19;97401.31;5012301;28;19933;-76
2022/09/08 02:17:40;;;;;;;;;;;;;;;17.90;78.09;97412.28;5006696;28;19969;-76
2022/09/08 02:20:30;;;;;;;;;;;;;;;17.92;78.55;97398.97;5015672;28;19929;-76
2022/09/08 02:23:18;;;;;;;;;;;;;;;17.91;78.00;97397.38;5001360;28;19940;-76
2022/09/08 02:26:31;;;;;;;;;;;;;;;17.93;78.82;97393.09;5008781;28;19925;-77
2022/09/08 02:29:20;;;;;;;;;;;;;;;17.92;78.63;97376.97;5000184;28;19925;-77
2022/09/08 02:32:08;;;;;;;;;;;;;;;17.88;78.83;97376.13;5011411;28;20428;-76
2022/09/08 02:34:57;;;;;;;;;;;;;;;17.88;78.60;97376.13;5010323;28;19932;-77
2022/09/08 02:37:46;;;;;;;;;;;;;;;17.84;78.71;97380.78;5004790;28;20388;-77
2022/09/08 02:40:35;;;;;;;;;;;;;;;17.81;78.57;97382.31;5010927;28;19933;-77
2022/09/08 02:43:23;;;;;;;;;;;;;;;17.86;78.90;97367.47;5004467;28;19932;-76
2022/09/08 02:46:16;;;;;;;;;;;;;;;17.85;79.43;97372.19;5016600;28;19983;-76
2022/09/08 02:49:05;;;;;;;;;;;;;;;17.86;79.10;97368.25;5014149;28;19929;-76
2022/09/08 02:51:53;;;;;;;;;;;;;;;17.87;79.35;97369.06;5006402;28;19930;-77
2022/09/08 02:54:43;;;;;;;;;;;;;;;17.88;79.41;97378.88;5003797;28;19956;-77
2022/09/08 02:57:32;;;;;;;;;;;;;;;17.89;79.21;97388.69;4998436;28;19929;-77
2022/09/08 03:00:20;;;;;;;;;;;;;;;17.92;79.15;97391.50;5000282;28;19929;-76
2022/09/08 03:03:08;;;;;;;;;;;;;;;17.89;78.99;97378.50;5021859;28;19930;-76
2022/09/08 03:05:57;;;;;;;;;;;;;;;17.87;78.76;97369.06;5011183;28;19929;-76
2022/09/08 03:08:46;;;;;;;;;;;;;;;17.88;78.94;97367.88;5008050;28;20129;-76
2022/09/08 03:11:37;;;;;;;;;;;;;;;17.84;79.68;97380.78;5009961;28;19925;-76
2022/09/08 03:14:25;;;;;;;;;;;;;;;17.80;80.38;97394.50;5002390;28;19929;-76
2022/09/08 03:17:14;;;;;;;;;;;;;;;17.76;80.26;97391.69;5003168;28;19951;-76
2022/09/08 03:20:02;;;;;;;;;;;;;;;17.73;79.47;97386.13;4999384;28;20021;-76
2022/09/08 03:22:51;;;;;;;;;;;;;;;17.67;79.51;97373.84;5002272;28;20400;-76
2022/09/08 03:25:39;;;;;;;;;;;;;;;17.69;78.54;97364.09;5004534;28;19933;-77
2022/09/08 03:28:29;;;;;;;;;;;;;;;17.75;78.98;97356.34;5006504;28;19932;-77
2022/09/08 03:31:19;;;;;;;;;;;;;;;17.71;79.47;97350.75;5003997;28;20010;-77
2022/09/08 03:34:07;;;;;;;;;;;;;;;17.69;78.50;97353.09;5007260;28;20008;-77
2022/09/08 03:36:58;;;;;;;;;;;;;;;17.67;79.11;97349.13;5003724;28;19925;-79
2022/09/08 03:39:46;;;;;;;;;;;;;;;17.61;78.38;97345.13;5000655;28;20399;-78
2022/09/08 03:43:00;;;;;;;;;;;;;;;17.65;78.05;97333.03;5005972;28;19925;-77
2022/09/08 03:45:51;;;;;;;;;;;;;;;17.65;77.90;97324.78;5001513;28;20064;-76
2022/09/08 03:49:05;;;;;;;;;;;;;;;17.61;78.28;97323.16;4999679;28;20299;-77
2022/09/08 03:51:53;;;;;;;;;;;;;;;17.53;78.49;97317.56;5002876;28;20012;-76
2022/09/08 03:54:51;;;;;;;;;;;;;;;17.44;78.34;97314.28;5003687;28;19936;-76
2022/09/08 03:57:39;;;;;;;;;;;;;;;17.45;79.25;97320.56;5008838;28;19976;-76
2022/09/08 04:00:28;;;;;;;;;;;;;;;17.44;79.55;97316.25;5006904;28;20000;-76
2022/09/08 04:03:18;;;;;;;;;;;;;;;17.38;79.37;97320.47;5000920;28;20385;-76
2022/09/08 04:09:19;;;;;;;;;;;;;;;17.37;80.24;97321.66;4997616;28;20428;-76
2022/09/08 04:12:08;;;;;;;;;;;;;;;17.36;79.70;97334.56;5005525;28;20024;-76
2022/09/08 04:14:57;;;;;;;;;;;;;;;17.34;79.69;97338.84;5002087;28;19937;-76
2022/09/08 04:17:47;;;;;;;;;;;;;;;17.33;79.70;97346.28;4999345;28;19944;-77
2022/09/08 04:20:38;;;;;;;;;;;;;;;17.39;79.79;97350.31;5006503;28;20019;-76
2022/09/08 04:23:26;;;;;;;;;;;;;;;17.41;79.85;97358.94;5006038;28;19941;-76
2022/09/08 04:26:20;;;;;;;;;;;;;;;17.41;79.66;97355.41;5002055;28;20377;-77
2022/09/08 04:29:16;;;;;;;;;;;;;;;17.39;79.26;97361.28;5003884;28;19925;-76
2022/09/08 04:32:05;;;;;;;;;;;;;;;17.43;78.97;97350.38;5001343;28;19934;-76
2022/09/08 04:34:53;;;;;;;;;;;;;;;17.46;78.88;97353.16;5007326;28;19930;-76
2022/09/08 04:37:42;;;;;;;;;;;;;;;17.52;79.58;97357.19;5006176;28;19975;-76
2022/09/08 04:40:32;;;;;;;;;;;;;;;17.52;80.10;97367.34;5004952;28;19925;-76
2022/09/08 04:43:21;;;;;;;;;;;;;;;17.49;80.07;97359.88;5006353;28;19929;-77
2022/09/08 04:46:34;;;;;;;;;;;;;;;17.47;80.33;97363.00;5001959;28;19929;-78
2022/09/08 04:49:23;;;;;;;;;;;;;;;17.48;80.38;97366.53;5002906;28;19926;-80
2022/09/08 04:52:11;;;;;;;;;;;;;;;17.51;79.84;97358.31;4995202;28;19961;-81
2022/09/08 04:55:02;;;;;;;;;;;;;;;17.57;79.97;97367.03;5001341;28;19932;-78
2022/09/08 04:57:50;;;;;;;;;;;;;;;17.55;80.05;97363.88;5013168;28;20589;-79
2022/09/08 05:00:39;;;;;;;;;;;;;;;17.55;80.04;97372.91;5000122;28;19929;-78
2022/09/08 05:04:00;;;;;;;;;;;;;;;17.58;79.94;97367.81;5001368;28;20009;-79
2022/09/08 05:06:49;;;;;;;;;;;;;;;17.60;79.38;97365.50;4996629;28;20091;-78
2022/09/08 05:09:37;;;;;;;;;;;;;;;17.62;78.51;97363.97;4998861;28;20032;-76
2022/09/08 05:12:51;;;;;;;;;;;;;;;17.59;78.82;97364.72;5004538;28;20384;-82
2022/09/08 05:15:44;;;;;;;;;;;;;;;17.58;78.91;97365.06;4994344;28;19926;-76
2022/09/08 05:18:33;;;;;;;;;;;;;;;17.58;78.99;97367.81;4997143;28;19972;-85
2022/09/08 05:21:46;;;;;;;;;;;;;;;17.56;78.98;97362.72;4995422;28;19977;-81
2022/09/08 05:24:35;;;;;;;;;;;;;;;17.49;79.08;97365.34;5009641;28;19925;-84
2022/09/08 05:27:23;;;;;;;;;;;;;;;17.45;78.93;97368.03;5005216;28;19926;-87
2022/09/08 05:30:14;;;;;;;;;;;;;;;17.50;79.20;97372.44;5001145;28;20301;-79
2022/09/08 05:33:02;;;;;;;;;;;;;;;17.52;79.53;97370.09;5002217;28;20066;-79
2022/09/08 05:36:16;;;;;;;;;;;;;;;17.55;79.51;97385.84;5000858;28;20336;-85
2022/09/08 05:39:28;;;;;;;;;;;;;;;17.50;79.44;97386.16;4988263;28;20396;-82
2022/09/08 05:42:17;;;;;;;;;;;;;;;17.57;79.23;97383.50;4994098;28;20017;-83
2022/09/08 05:45:30;;;;;;;;;;;;;;;17.57;79.59;97394.50;4998769;28;19930;-79
2022/09/08 05:48:20;;;;;;;;;;;;;;;17.63;80.09;97404.03;4988648;28;20399;-80
2022/09/08 05:51:08;;;;;;;;;;;;;;;17.63;79.51;97398.53;4997574;28;19926;-81
2022/09/08 05:54:22;;;;;;;;;;;;;;;17.68;79.79;97405.66;4997461;28;19961;-81
2022/09/08 05:57:11;;;;;;;;;;;;;;;17.68;79.55;97400.94;4999643;28;19933;-80
2022/09/08 05:59:59;;;;;;;;;;;;;;;17.68;79.41;97405.66;5001244;28;19926;-80
2022/09/08 06:03:12;;;;;;;;;;;;;;;17.68;79.56;97400.16;4992382;28;19929;-81
2022/09/08 06:06:03;;;;;;;;;;;;;;;17.73;78.97;97406.16;5000399;28;19925;-81
2022/09/08 06:08:55;;;;;;;;;;;;;;;17.73;78.60;97408.09;4989275;28;19969;-81
2022/09/08 06:11:43;;;;;;;;;;;;;;;17.74;78.87;97407.75;5019125;28;19929;-79
2022/09/08 06:14:34;;;;;;;;;;;;;;;17.73;78.98;97402.59;4994045;28;19929;-81
2022/09/08 06:17:23;;;;;;;;;;;;;;;17.77;79.15;97409.75;5001036;28;19926;-80
2022/09/08 06:20:11;;;;;;;;;;;;;;;17.84;78.90;97413.75;4999311;28;20007;-81
2022/09/08 06:23:01;;;;;;;;;;;;;;;17.86;79.12;97414.19;5005217;28;20081;-80
2022/09/08 06:25:52;;;;;;;;;;;;;;;17.87;78.60;97415.78;4997777;28;19926;-81
2022/09/08 06:28:41;;;;;;;;;;;;;;;17.86;78.45;97414.19;4998907;28;19926;-80
2022/09/08 06:31:56;;;;;;;;;;;;;;;17.87;78.68;97418.53;4996978;28;19934;-81
2022/09/08 06:34:46;;;;;;;;;;;;;;;17.90;78.23;97418.56;4992474;28;19934;-78
2022/09/08 06:37:37;;;;;;;;;;;;;;;17.88;78.00;97420.88;5021331;28;19973;-77
2022/09/08 06:40:30;;;;;;;;;;;;;;;17.90;78.73;97417.78;4992690;28;19972;-79
2022/09/08 06:43:19;;;;;;;;;;;;;;;17.90;78.41;97423.28;4996191;28;19933;-79
2022/09/08 06:46:13;;;;;;;;;;;;;;;17.92;78.00;97420.94;5004755;28;20426;-80
2022/09/08 06:49:26;;;;;;;;;;;;;;;17.90;78.57;97423.28;4996513;28;19934;-78
2022/09/08 06:52:17;;;;;;;;;;;;;;;17.90;78.23;97431.53;4995662;28;19929;-80
2022/09/08 06:55:07;;;;;;;;;;;;;;;17.87;78.60;97435.78;5001534;28;19929;-80
2022/09/08 06:58:03;;;;;;;;;;;;;;;17.89;78.43;97433.47;5007727;28;19949;-79
2022/09/08 07:00:54;;;;;;;;;;;;;;;17.92;78.57;97440.19;5006195;28;19926;-79
2022/09/08 07:04:07;;;;;;;;;;;;;;;17.86;77.51;97436.97;4996105;28;20419;-79
2022/09/08 07:07:20;;;;;;;;;;;;;;;17.80;77.57;97442.00;4998636;28;20017;-79
2022/09/08 07:10:10;;;;;;;;;;;;;;;17.79;78.47;97440.41;4999678;28;19932;-79
2022/09/08 07:13:01;;;;;;;;;;;;;;;17.77;78.20;97445.47;5001896;28;20566;-80
2022/09/08 07:15:51;;;;;;;;;;;;;;;17.70;77.99;97455.53;5004209;28;19952;-78
2022/09/08 07:18:41;;;;;;;;;;;;;;;17.62;79.24;97457.34;4996831;28;20012;-79
2022/09/08 07:21:31;;;;;;;;;;;;;;;17.57;79.59;97454.13;5000460;28;19930;-79
2022/09/08 07:24:20;;;;;;;;;;;;;;;17.58;78.93;97462.03;4995907;28;19979;-79
2022/09/08 07:27:14;;;;;;;;;;;;;;;17.59;79.40;97474.59;4994277;28;20202;-79
2022/09/08 07:30:06;;;;;;;;;;;;;;;17.57;80.01;97476.91;4998920;28;19926;-80
2022/09/08 07:32:56;;;;;;;;;;;;;;;17.58;80.41;97484.00;4997340;28;19934;-81
2022/09/08 07:36:07;;;;;;;;;;;;;;;17.54;79.81;97483.13;5012745;28;19925;-79
2022/09/08 07:39:00;;;;;;;;;;;;;;;17.57;79.96;97487.09;5005564;28;20000;-82
2022/09/08 07:41:53;;;;;;;;;;;;;;;17.50;81.08;97493.28;5000715;28;20523;-80
2022/09/08 07:44:49;;;;;;;;;;;;;;;17.46;80.95;97493.19;5003629;28;19945;-79
2022/09/08 07:47:46;;;;;;;;;;;;;;;17.42;81.21;97494.31;5006556;28;20288;-79
2022/09/08 07:57:18;;;;;;;;;;;;;;;17.32;81.79;97503.16;5010581;28;20403;-77
2022/09/08 08:00:31;;;;;;;;;;;;;;;17.37;82.77;97505.59;5018153;28;20418;-79
2022/09/08 08:07:20;;;;;;;;;;;;;;;17.28;83.05;97514.06;4994939;28;19933;-80
2022/09/08 08:10:11;;;;;;;;;;;;;;;17.25;83.78;97515.56;5000634;28;19996;-82
2022/09/08 08:13:20;;;;;;;;;;;;;;;17.31;84.19;97515.28;5000130;28;19980;-81
2022/09/08 08:16:09;;;;;;;;;;;;;;;17.29;83.92;97516.44;4999276;28;19929;-81
2022/09/08 08:19:03;;;;;;;;;;;;;;;17.31;83.67;97513.34;5000253;28;19930;-79
2022/09/08 08:21:53;;;;;;;;;;;;;;;17.31;83.76;97518.03;5000687;28;19937;-83
2022/09/08 08:24:25;;;;;;;;;;;;;;;17.29;84.10;97529.38;5004954;28;20523;-84
2022/09/08 08:26:58;;;;;;;;;;;;;;;17.31;84.23;97524.34;5007088;28;20296;-83
2022/09/08 08:29:40;;;;;;;;;;;;;;;17.29;84.44;97521.94;5002163;28;19929;-83
2022/09/08 08:32:11;;;;;;;;;;;;;;;17.24;84.20;97519.50;5001197;28;20383;-82
2022/09/08 08:35:01;;;;;;;;;;;;;;;17.24;85.29;97524.97;4999810;28;19930;-83
2022/09/08 08:37:30;;;;;;;;;;;;;;;17.23;84.40;97522.59;5016804;28;20023;-83
2022/09/08 08:47:08;;;;;;;;;;;;;;;17.33;83.49;97532.19;5005902;28;20021;-82
2022/09/08 08:50:07;;;;;;;;;;;;;;;17.35;83.69;97535.38;5000867;28;19940;-81
2022/09/08 08:53:02;;;;;;;;;;;;;;;17.37;83.44;97533.06;4999209;28;20004;-82
2022/09/08 08:55:51;;;;;;;;;;;;;;;17.33;83.09;97538.47;5001520;28;19925;-83
2022/09/08 09:02:14;;;;;;;;;;;;;;;17.28;82.47;97530.53;5015333;28;19933;-81
2022/09/08 09:05:06;;;;;;;;;;;;;;;17.40;83.42;97532.31;5004822;28;19965;-83
2022/09/08 09:08:25;;;;;;;;;;;;;;;17.49;83.26;97527.38;5001544;28;19929;-82
2022/09/08 09:11:21;;;;;;;;;;;;;;;17.57;82.37;97528.28;4962588;28;19926;-82
2022/09/08 09:14:36;;;;;;;;;;;;;;;17.57;81.65;97526.34;5007505;28;19926;-82
2022/09/08 09:17:55;;;;;;;;;;;;;;;17.59;81.78;97529.53;5000393;28;19936;-81
2022/09/08 09:20:51;;;;;;;;;;;;;;;17.62;80.89;97523.28;5006807;28;20016;-82
2022/09/08 09:23:43;;;;;;;;;;;;;;;17.60;79.87;97531.09;5004140;28;20265;-81
2022/09/08 09:26:15;;;;;;;;;;;;;;;17.62;80.00;97542.50;5005352;28;19931;-83
2022/09/08 09:31:58;;;;;;;;;;;;;;;17.77;79.03;97536.13;5017386;28;19929;-82
2022/09/08 09:34:34;;;;;;;;;;;;;;;17.85;77.62;97552.75;5006991;28;19936;-83
2022/09/08 09:37:39;;;;;;;;;;;;;;;17.83;77.12;97550.34;5000959;28;19925;-81
2022/09/08 09:40:16;;;;;;;;;;;;;;;17.79;76.44;97555.03;5003253;28;19929;-82
2022/09/08 09:43:34;;;;;;;;;;;;;;;17.70;74.69;97566.22;5003484;28;20269;-83
2022/09/08 09:47:29;;;;;;;;;;;;;;;17.66;74.52;97554.38;5002092;28;19976;-83
2022/09/08 09:50:22;;;;;;;;;;;;;;;17.62;74.58;97556.25;5006922;28;20385;-82
2022/09/08 09:52:54;;;;;;;;;;;;;;;17.69;73.52;97552.84;5007266;28;19961;-83
2022/09/08 09:55:42;;;;;;;;;;;;;;;17.70;73.80;97557.97;5001326;28;20044;-81
2022/09/08 09:58:19;;;;;;;;;;;;;;;17.69;74.40;97561.88;5006599;28;19925;-81
2022/09/08 10:01:13;;;;;;;;;;;;;;;17.71;73.76;97554.06;5020184;28;20608;-82
2022/09/08 10:03:47;;;;;;;;;;;;;;;17.69;73.56;97550.91;4992862;28;19991;-82
2022/09/08 10:06:22;;;;;;;;;;;;;;;17.76;73.25;97551.03;5007287;28;19984;-83
2022/09/08 10:09:25;;;;;;;;;;;;;;;17.92;72.30;97555.59;5000648;28;20395;-82
2022/09/08 10:11:57;;;;;;;;;;;;;;;18.00;72.90;97546.31;5003164;28;19926;-83
2022/09/08 10:14:35;;;;;;;;;;;;;;;18.25;71.14;97544.72;4999057;28;20285;-82
2022/09/08 10:17:10;;;;;;;;;;;;;;;18.44;70.18;97540.28;5000477;28;19932;-82
2022/09/08 10:19:57;;;;;;;;;;;;;;;18.45;69.47;97541.88;5006154;28;20380;-82
2022/09/08 10:22:33;;;;;;;;;;;;;;;18.22;70.29;97550.19;5007886;28;19926;-82
2022/09/08 10:25:27;;;;;;;;;;;;;;;18.05;69.88;97546.78;4997365;28;19945;-84
2022/09/08 10:28:06;;;;;;;;;;;;;;;18.06;69.69;97544.84;5005267;28;19926;-80
2022/09/08 10:30:50;;;;;;;;;;;;;;;18.04;69.97;97547.16;4997423;28;19933;-83
2022/09/08 10:33:33;;;;;;;;;;;;;;;18.15;70.60;97548.09;5002020;28;19968;-84
2022/09/08 10:38:59;;;;;;;;;;;;;;;18.41;69.76;97558.31;5004115;28;19930;-82
2022/09/08 10:41:49;;;;;;;;;;;;;;;18.35;68.68;97559.81;5006995;28;19992;-83
2022/09/08 10:48:40;;;;;;;;;;;;;;;18.29;67.01;97575.84;5004592;28;19925;-81
2022/09/08 10:51:22;;;;;;;;;;;;;;;18.15;66.71;97580.31;4974237;28;19925;-77
2022/09/08 10:54:23;;;;;;;;;;;;;;;18.07;66.39;97576.66;5004165;28;20319;-83
2022/09/08 10:57:26;;;;;;;;;;;;;;;18.09;66.38;97584.53;5009045;28;20481;-83
2022/09/08 11:00:08;;;;;;;;;;;;;;;18.33;67.34;97576.69;5006555;28;19972;-82
2022/09/08 11:02:40;;;;;;;;;;;;;;;18.38;65.72;97580.28;5014342;28;20385;-80
2022/09/08 11:05:26;;;;;;;;;;;;;;;18.39;64.74;97579.13;5004909;28;19967;-84
2022/09/08 11:08:22;;;;;;;;;;;;;;;18.30;64.01;97582.13;5006153;28;19972;-83
2022/09/08 11:11:04;;;;;;;;;;;;;;;18.41;63.93;97580.31;5005203;28;19926;-81
2022/09/08 11:13:36;;;;;;;;;;;;;;;18.37;62.01;97584.97;4998665;28;19925;-83
2022/09/08 11:16:18;;;;;;;;;;;;;;;18.45;60.92;97596.88;5004271;28;19925;-83
2022/09/08 11:18:54;;;;;;;;;;;;;;;18.53;61.04;97588.34;5005902;28;19925;-85
2022/09/08 11:21:26;;;;;;;;;;;;;;;18.55;61.23;97588.00;5001387;28;19925;-82
2022/09/08 11:23:59;;;;;;;;;;;;;;;18.54;60.81;97589.97;5009803;28;20393;-82
2022/09/08 11:26:29;;;;;;;;;;;;;;;18.55;60.85;97586.03;5005071;28;19972;-82
2022/09/08 11:29:02;;;;;;;;;;;;;;;18.55;60.40;97593.50;5000216;28;19978;-82
2022/09/08 11:35:10;;;;;;;;;;;;;;;18.64;61.09;97598.72;5000857;28;19925;-80
2022/09/08 11:37:51;;;;;;;;;;;;;;;18.63;59.92;97592.41;5007668;28;19926;-80
2022/09/08 11:40:29;;;;;;;;;;;;;;;18.71;59.79;97594.16;5003414;28;19977;-81
2022/09/08 11:43:33;;;;;;;;;;;;;;;18.83;59.22;97593.91;5006644;28;19937;-78
2022/09/08 11:46:31;;;;;;;;;;;;;;;18.96;58.32;97588.16;5008418;28;20352;-80
2022/09/08 11:50:16;;;;;;;;;;;;;;;19.07;58.53;97592.66;5011629;28;20364;-80
2022/09/08 11:53:28;;;;;;;;;;;;;;;19.08;57.95;97590.69;4995208;28;19967;-81
2022/09/08 11:56:20;;;;;;;;;;;;;;;19.20;56.80;97584.13;5004327;28;19933;-80
2022/09/08 11:58:53;;;;;;;;;;;;;;;19.42;56.77;97587.91;5007507;28;20258;-81
2022/09/08 12:01:37;;;;;;;;;;;;;;;19.66;55.77;97587.41;5002075;28;19973;-81
2022/09/08 12:04:18;;;;;;;;;;;;;;;19.73;55.18;97581.19;5014616;28;19925;-81
2022/09/08 12:10:16;;;;;;;;;;;;;;;19.63;55.21;97590.91;5005655;28;19926;-81
2022/09/08 12:12:57;;;;;;;;;;;;;;;19.65;54.96;97585.81;4977346;28;19957;-82
2022/09/08 12:15:56;;;;;;;;;;;;;;;19.76;54.88;97595.00;5024622;28;20376;-82
2022/09/08 12:18:35;;;;;;;;;;;;;;;19.81;55.62;97594.63;5012024;28;20020;-82
2022/09/08 12:21:28;;;;;;;;;;;;;;;19.89;55.06;97584.47;5024068;28;19981;-82
2022/09/08 12:23:59;;;;;;;;;;;;;;;19.87;55.90;97592.34;5007500;28;19925;-80
2022/09/08 12:26:30;;;;;;;;;;;;;;;19.93;54.33;97590.03;4997493;28;20036;-82
2022/09/08 12:29:25;;;;;;;;;;;;;;;19.96;53.25;97589.25;5007642;28;20308;-82
2022/09/08 12:32:00;;;;;;;;;;;;;;;19.80;54.24;97587.53;5001261;28;19925;-81
2022/09/08 12:35:23;;;;;;;;;;;;;;;19.85;55.63;97583.66;5000953;28;19926;-82
2022/09/08 12:38:02;;;;;;;;;;;;;;;19.87;54.30;97595.91;4998864;28;20446;-81
2022/09/08 12:40:40;;;;;;;;;;;;;;;19.84;54.25;97610.41;4999169;28;20241;-80
2022/09/08 12:43:13;;;;;;;;;;;;;;;19.84;54.53;97593.88;4991643;28;19932;-82
2022/09/08 12:46:08;;;;;;;;;;;;;;;19.88;53.57;97594.72;5007688;28;20332;-81
2022/09/08 12:48:38;;;;;;;;;;;;;;;19.89;53.68;97601.81;4999139;28;20355;-81
2022/09/08 12:51:08;;;;;;;;;;;;;;;19.96;52.92;97597.53;4999942;28;19930;-81
2022/09/08 12:53:48;;;;;;;;;;;;;;;19.92;52.82;97588.41;5002798;28;20367;-81
2022/09/08 12:56:19;;;;;;;;;;;;;;;19.99;51.59;97589.28;5017118;28;19926;-82
2022/09/08 12:58:52;;;;;;;;;;;;;;;20.09;52.22;97590.56;5010997;28;19976;-80
2022/09/08 13:01:22;;;;;;;;;;;;;;;20.20;50.50;97596.16;5009711;28;20273;-81
2022/09/08 13:03:50;;;;;;;;;;;;;;;20.31;50.37;97591.50;5016610;28;19936;-81
2022/09/08 13:06:38;;;;;;;;;;;;;;;20.34;50.51;97597.03;5000920;28;19926;-81
2022/09/08 13:09:25;;;;;;;;;;;;;;;20.14;49.99;97595.72;5005671;28;19932;-80
2022/09/08 13:14:59;;;;;;;;;;;;;;;20.32;49.80;97591.13;5005735;28;19933;-80
2022/09/08 13:17:52;;;;;;;;;;;;;;;20.38;49.64;97595.09;5005154;28;19926;-80
2022/09/08 13:20:27;;;;;;;;;;;;;;;20.41;49.03;97599.06;4995878;28;19972;-80
2022/09/08 13:23:01;;;;;;;;;;;;;;;20.39;49.21;97610.47;4997153;28;19930;-80
2022/09/08 13:25:33;;;;;;;;;;;;;;;20.38;47.91;97600.63;5009226;28;19925;-81
2022/09/08 13:28:12;;;;;;;;;;;;;;;20.23;48.22;97604.44;5004837;28;20429;-81
2022/09/08 13:30:41;;;;;;;;;;;;;;;20.12;48.91;97604.34;4988302;28;19925;-80
2022/09/08 13:33:22;;;;;;;;;;;;;;;20.07;48.54;97601.94;4998666;28;19926;-81
2022/09/08 13:36:02;;;;;;;;;;;;;;;20.15;48.46;97608.34;4997568;28;19934;-81
2022/09/08 13:39:11;;;;;;;;;;;;;;;20.18;48.54;97607.56;5005763;28;19925;-81
2022/09/08 13:42:03;;;;;;;;;;;;;;;20.09;48.62;97596.06;5004255;28;19958;-80
2022/09/08 13:45:00;;;;;;;;;;;;;;;20.12;48.76;97598.06;4990642;28;19931;-81
2022/09/08 13:47:46;;;;;;;;;;;;;;;20.12;48.50;97598.06;4999633;28;19926;-81
2022/09/08 13:50:20;;;;;;;;;;;;;;;20.22;48.95;97602.88;5021480;28;19925;-81
2022/09/08 13:52:56;;;;;;;;;;;;;;;20.32;49.67;97587.56;5017258;28;19925;-82
2022/09/08 13:55:40;;;;;;;;;;;;;;;20.51;49.36;97590.09;5024501;28;19925;-82
2022/09/08 13:58:27;;;;;;;;;;;;;;;20.40;48.57;97590.00;5040288;28;20000;-86
2022/09/08 14:01:14;;;;;;;;;;;;;;;20.22;48.23;97586.31;5042211;28;19932;-86
2022/09/08 14:03:49;;;;;;;;;;;;;;;20.15;49.29;97584.31;5023034;28;19942;-87
2022/09/08 14:06:30;;;;;;;;;;;;;;;20.19;48.81;97597.31;5021829;28;19925;-85
2022/09/08 14:09:15;;;;;;;;;;;;;;;20.21;48.95;97593.00;5025639;28;19983;-87
2022/09/08 14:12:21;;;;;;;;;;;;;;;20.33;48.16;97597.44;5046323;28;19928;-85
2022/09/08 14:15:16;;;;;;;;;;;;;;;20.44;47.33;97581.72;5047040;28;19965;-85
2022/09/08 14:18:06;;;;;;;;;;;;;;;20.61;47.18;97586.63;5036620;28;19929;-84
2022/09/08 14:21:10;;;;;;;;;;;;;;;20.79;47.70;97581.19;5044565;28;19925;-83
2022/09/08 14:23:55;;;;;;;;;;;;;;;20.83;46.80;97582.00;5032673;28;19925;-85
2022/09/08 14:26:35;;;;;;;;;;;;;;;20.82;46.73;97582.38;5029064;28;20371;-84
2022/09/08 14:29:14;;;;;;;;;;;;;;;20.91;47.23;97580.84;5032065;28;19932;-82
2022/09/08 14:32:05;;;;;;;;;;;;;;;20.90;46.93;97582.03;5033111;28;19980;-84
2022/09/08 14:35:21;;;;;;;;;;;;;;;20.93;46.29;97584.03;5051192;28;19925;-84
2022/09/08 14:38:23;;;;;;;;;;;;;;;20.96;46.45;97579.69;5046216;28;19928;-81
2022/09/08 14:40:56;;;;;;;;;;;;;;;20.93;46.83;97584.03;5034522;28;19933;-83
2022/09/08 14:46:52;;;;;;;;;;;;;;;21.14;46.81;97574.22;5043806;28;19967;-83
2022/09/08 14:49:50;;;;;;;;;;;;;;;21.29;46.24;97570.34;5027530;28;21169;-85
2022/09/08 14:52:47;;;;;;;;;;;;;;;21.39;45.15;97553.03;5014569;28;19991;-85
2022/09/08 14:55:34;;;;;;;;;;;;;;;21.48;44.82;97566.47;5002073;28;19994;-85
2022/09/08 14:58:47;;;;;;;;;;;;;;;21.56;44.75;97570.03;5016801;28;19964;-85
2022/09/08 15:01:36;;;;;;;;;;;;;;;21.47;44.02;97559.38;5018367;28;21002;-86
2022/09/08 15:04:05;;;;;;;;;;;;;;;21.52;44.20;97563.69;5020881;28;20296;-84
2022/09/08 15:06:34;;;;;;;;;;;;;;;21.51;44.01;97557.38;5010384;28;19945;-82
2022/09/08 15:09:35;;;;;;;;;;;;;;;21.66;44.55;97555.44;5014665;28;20388;-87
2022/09/08 15:12:35;;;;;;;;;;;;;;;21.58;44.39;97557.41;4949799;29;19934;-84
2022/09/08 15:15:11;;;;;;;;;;;;;;;21.55;44.08;97562.94;4944613;29;19927;-84
2022/09/08 15:17:40;;;;;;;;;;;;;;;21.53;45.00;97562.53;4932861;29;19927;-82
2022/09/08 15:20:09;;;;;;;;;;;;;;;21.67;44.83;97557.81;4930233;29;20311;-82
2022/09/08 15:22:44;;;;;;;;;;;;;;;21.59;43.63;97561.75;4934537;29;20447;-86
2022/09/08 15:25:17;;;;;;;;;;;;;;;21.61;44.34;97555.84;4937133;29;19938;-81
2022/09/08 15:27:47;;;;;;;;;;;;;;;21.64;44.00;97555.06;4918226;29;19933;-80
2022/09/08 15:30:16;;;;;;;;;;;;;;;21.53;43.64;97551.50;4916703;29;19930;-80
2022/09/08 15:32:45;;;;;;;;;;;;;;;21.35;44.46;97552.22;4914088;29;20384;-82
2022/09/08 15:35:37;;;;;;;;;;;;;;;21.32;44.26;97544.72;4919986;29;19984;-85